Time;durP1;ratioP1;P1;durP2;ratioP2;P2;SDS_P1;SDS_P2;PMS_P1;PMS_P2;Temp;Humidity;BMP_temperature;BMP_pressure;BME280_temperature;BME280_humidity;BME280_pressure;Samples;Min_cycle;Max_cycle;Signal;HPM_P1;HPM_P2
2023/12/10 00:13:40;;;;;;;183.20;54.40;;;;;;;4.00;94.37;99595.34;682649;1262;139195;-80
2023/12/10 00:29:17;;;;;;;170.30;53.60;;;;;;;3.98;95.12;99607.75;682546;1263;140576;-79
2023/12/10 00:44:54;;;;;;;160.30;52.80;;;;;;;4.20;94.33;99617.52;682896;1262;140387;-80
2023/12/10 01:00:31;;;;;;;124.90;43.00;;;;;;;4.12;94.31;99612.98;682609;1262;140831;-80
2023/12/10 01:16:09;;;;;;;120.20;39.10;;;;;;;4.15;94.01;99610.04;682751;1262;139955;-80
2023/12/10 01:31:45;;;;;;;155.50;52.60;;;;;;;4.06;93.80;99595.77;675022;1264;10135445;-80
2023/12/10 01:47:22;;;;;;;149.00;49.60;;;;;;;4.14;93.70;99595.75;682683;1262;140545;-80
2023/12/10 02:03:00;;;;;;;145.30;52.90;;;;;;;4.15;93.13;99601.23;682750;1263;139703;-81
2023/12/10 02:18:36;;;;;;;146.70;50.20;;;;;;;4.08;93.47;99592.72;682992;1262;139909;-81
2023/12/10 02:34:15;;;;;;;141.60;48.50;;;;;;;4.21;92.63;99581.23;683137;1259;139621;-80
2023/12/10 02:49:52;;;;;;;130.50;47.10;;;;;;;4.14;92.38;99575.48;682780;1260;140879;-80
2023/12/10 03:05:29;;;;;;;150.50;47.90;;;;;;;4.16;91.75;99553.52;683481;1263;139047;-81
2023/12/10 03:21:06;;;;;;;124.10;43.40;;;;;;;4.11;91.73;99553.02;683487;1263;139506;-80
2023/12/10 03:36:43;;;;;;;173.50;52.80;;;;;;;4.06;91.58;99552.73;683112;1262;138829;-81
2023/12/10 03:52:20;;;;;;;413.30;114.20;;;;;;;4.13;91.50;99551.52;683356;1263;139694;-80
2023/12/10 04:07:58;;;;;;;151.90;49.50;;;;;;;4.01;91.63;99539.73;683064;1263;139151;-80
2023/12/10 04:23:35;;;;;;;125.60;45.10;;;;;;;4.01;91.59;99531.80;683355;1263;138077;-81
2023/12/10 04:39:12;;;;;;;118.40;39.80;;;;;;;3.97;91.61;99532.73;682923;1263;139570;-80
2023/12/10 04:54:49;;;;;;;130.30;47.50;;;;;;;4.04;90.94;99535.53;682704;1263;140141;-80
2023/12/10 05:10:26;;;;;;;133.20;45.80;;;;;;;4.12;90.52;99530.15;682716;1263;140072;-81
2023/12/10 05:26:03;;;;;;;115.40;44.30;;;;;;;4.15;90.69;99533.73;682622;1261;139129;-80
2023/12/10 05:41:40;;;;;;;139.10;53.00;;;;;;;4.06;90.28;99532.12;682975;1262;139294;-80
2023/12/10 05:57:17;;;;;;;116.80;44.70;;;;;;;4.02;90.80;99523.45;682948;1263;139953;-80
2023/12/10 06:12:55;;;;;;;144.70;56.20;;;;;;;3.94;90.27;99533.66;682607;1263;139826;-80
2023/12/10 06:28:32;;;;;;;265.10;86.20;;;;;;;3.76;90.17;99539.13;682713;1263;139513;-80
2023/12/10 06:44:14;;;;;;;114.70;46.10;;;;;;;3.82;90.83;99561.52;682642;1260;139957;-81
2023/12/10 06:59:51;;;;;;;140.70;52.90;;;;;;;3.97;91.08;99604.73;682772;1257;140037;-81
2023/12/10 07:15:28;;;;;;;160.90;68.60;;;;;;;4.06;91.02;99597.01;682855;1257;139563;-80
2023/12/10 07:31:05;;;;;;;210.30;67.30;;;;;;;4.03;91.45;99602.90;682483;1257;139052;-81
2023/12/10 07:46:42;;;;;;;158.60;53.50;;;;;;;4.05;91.02;99601.61;682657;1263;139532;-80
2023/12/10 08:02:19;;;;;;;139.10;50.30;;;;;;;4.01;91.29;99633.55;682566;1261;140447;-81
2023/12/10 08:17:58;;;;;;;223.10;83.10;;;;;;;4.05;91.41;99665.45;682745;1260;140282;-81
2023/12/10 08:33:37;;;;;;;525.10;180.10;;;;;;;4.03;90.52;99670.76;682707;1259;139791;-81
2023/12/10 08:49:14;;;;;;;139.60;51.80;;;;;;;4.04;90.23;99655.98;682512;1260;139782;-81
2023/12/10 09:04:51;;;;;;;301.30;98.80;;;;;;;4.18;89.31;99667.83;682667;1260;139734;-81
2023/12/10 09:20:28;;;;;;;137.40;51.80;;;;;;;4.17;88.86;99662.35;682897;1257;139229;-82
2023/12/10 09:36:05;;;;;;;615.40;189.20;;;;;;;4.27;88.09;99641.72;682992;1258;139760;-82
2023/12/10 09:51:44;;;;;;;285.10;91.10;;;;;;;4.28;87.73;99641.30;682942;1260;140022;-82
2023/12/10 10:07:22;;;;;;;214.40;71.90;;;;;;;4.14;88.08;99644.02;682819;1258;140763;-82
2023/12/10 10:22:59;;;;;;;439.00;130.50;;;;;;;4.23;86.42;99649.30;682900;1257;139279;-82
2023/12/10 10:38:36;;;;;;;202.20;64.50;;;;;;;4.16;84.89;99641.10;682685;1262;140034;-82
2023/12/10 10:54:14;;;;;;;195.90;63.30;;;;;;;3.96;85.63;99642.21;682986;1260;139904;-82
2023/12/10 11:10:01;;;;;;;330.50;92.80;;;;;;;3.88;86.34;99638.23;682804;1259;139198;-82
2023/12/10 11:25:47;;;;;;;219.80;78.70;;;;;;;3.88;85.77;99631.85;682709;1259;139439;-82
2023/12/10 11:41:25;;;;;;;106.30;41.10;;;;;;;3.86;85.59;99641.02;682855;1259;139339;-82
2023/12/10 11:57:02;;;;;;;444.90;137.20;;;;;;;3.84;85.49;99636.46;682799;1259;139989;-81
2023/12/10 12:12:44;;;;;;;208.70;63.30;;;;;;;3.95;85.01;99641.57;682762;1262;141351;-82
2023/12/10 12:28:21;;;;;;;135.50;46.10;;;;;;;3.84;84.87;99640.29;682664;1260;139164;-83
2023/12/10 12:43:58;;;;;;;145.80;52.90;;;;;;;3.78;85.11;99643.29;682844;1257;139622;-83
2023/12/10 12:59:35;;;;;;;665.30;201.30;;;;;;;3.56;85.79;99640.77;682945;1262;139295;-83
2023/12/10 13:15:12;;;;;;;198.40;58.60;;;;;;;3.49;85.75;99632.61;682824;1262;139344;-81
2023/12/10 13:30:50;;;;;;;215.10;56.80;;;;;;;3.21;86.29;99626.73;675214;1260;10137952;-81
2023/12/10 13:46:28;;;;;;;177.80;57.00;;;;;;;3.08;86.95;99632.65;682915;1263;139448;-81
2023/12/10 14:02:08;;;;;;;146.20;49.60;;;;;;;3.19;86.38;99636.78;682646;1259;139505;-82
2023/12/10 14:17:45;;;;;;;137.50;50.00;;;;;;;3.21;85.64;99642.84;682895;1260;139177;-80
2023/12/10 14:33:29;;;;;;;193.00;68.40;;;;;;;3.06;85.66;99654.52;682874;1260;140345;-80
2023/12/10 14:49:06;;;;;;;;;;;;;;;3.04;85.87;99658.83;682773;1262;140091;-80
2023/12/10 15:04:50;;;;;;;729.20;281.70;;;;;;;2.88;86.82;99663.33;683161;1260;125757;-80
2023/12/10 15:20:26;;;;;;;191.50;62.60;;;;;;;2.82;87.15;99656.61;682780;1259;139570;-80
2023/12/10 15:36:03;;;;;;;120.40;43.60;;;;;;;2.93;86.64;99644.22;682778;1262;139929;-81
2023/12/10 15:52:01;;;;;;;159.40;56.30;;;;;;;2.90;86.94;99658.00;682584;1257;140130;-80
2023/12/10 16:07:38;;;;;;;172.80;54.10;;;;;;;2.79;86.96;99636.25;682536;1262;140061;-80
2023/12/10 16:23:22;;;;;;;154.30;54.60;;;;;;;2.83;86.99;99627.56;682324;1261;139339;-80
2023/12/10 16:38:59;;;;;;;129.80;49.40;;;;;;;2.77;87.49;99630.02;682675;1262;139185;-80
2023/12/10 16:54:36;;;;;;;;;;;;;;;2.82;87.78;99616.94;682685;1262;140795;-78
2023/12/10 17:10:14;;;;;;;157.10;54.20;;;;;;;2.79;88.18;99611.08;683161;1260;125777;-81
2023/12/10 17:25:51;;;;;;;131.90;45.60;;;;;;;2.77;88.56;99589.95;682560;1262;140065;-80
2023/12/10 17:41:28;;;;;;;159.80;55.40;;;;;;;2.79;89.27;99588.81;682752;1262;139534;-80
2023/12/10 17:57:06;;;;;;;214.10;84.50;;;;;;;2.94;89.58;99587.80;682638;1261;139838;-80
2023/12/10 18:12:43;;;;;;;159.30;53.80;;;;;;;3.06;89.77;99559.00;682648;1260;139123;-80
2023/12/10 18:28:20;;;;;;;128.80;46.20;;;;;;;3.19;89.47;99531.17;682763;1260;138976;-81
2023/12/10 18:43:57;;;;;;;;;;;;;;;3.29;89.73;99522.02;682629;1263;139316;-81
2023/12/10 18:59:34;;;;;;;137.20;50.40;;;;;;;3.22;90.47;99497.63;682806;1262;126804;-80
2023/12/10 19:15:12;;;;;;;135.50;43.80;;;;;;;3.25;91.79;99489.66;682682;1263;139099;-80
2023/12/10 19:30:49;;;;;;;134.80;50.60;;;;;;;3.40;91.41;99475.98;682489;1264;139672;-80
2023/12/10 19:46:26;;;;;;;145.70;52.40;;;;;;;3.56;91.11;99460.25;682425;1263;139654;-80
2023/12/10 20:02:03;;;;;;;149.50;60.10;;;;;;;3.56;91.55;99452.02;682386;1263;139378;-80
2023/12/10 20:17:40;;;;;;;136.60;54.10;;;;;;;3.74;91.55;99435.50;682484;1260;139304;-80
2023/12/10 20:33:17;;;;;;;110.60;40.40;;;;;;;3.85;92.03;99416.17;682328;1269;139309;-80
2023/12/10 20:48:54;;;;;;;;;;;;;;;3.79;92.37;99382.17;682752;1262;140643;-80
2023/12/10 21:04:32;;;;;;;133.90;45.20;;;;;;;4.11;91.98;99364.24;682681;1263;125186;-79
2023/12/10 21:20:09;;;;;;;126.90;45.20;;;;;;;4.29;91.20;99343.81;682655;1263;140016;-80
2023/12/10 21:35:45;;;;;;;133.70;51.70;;;;;;;4.33;91.41;99321.92;682517;1262;139981;-80
2023/12/10 21:51:23;;;;;;;114.10;40.30;;;;;;;4.44;92.02;99303.05;682263;1263;139443;-81
2023/12/10 22:06:59;;;;;;;133.50;42.70;;;;;;;4.59;91.11;99283.69;682529;1263;140835;-80
2023/12/10 22:22:37;;;;;;;133.50;40.70;;;;;;;4.68;91.63;99261.02;682604;1263;140004;-80
2023/12/10 22:38:14;;;;;;;108.30;37.50;;;;;;;4.70;91.45;99239.73;682661;1260;140026;-80
2023/12/10 22:53:51;;;;;;;108.00;35.10;;;;;;;4.75;91.92;99211.06;682839;1260;139967;-80
2023/12/10 23:09:28;;;;;;;90.50;32.80;;;;;;;4.87;91.78;99193.63;682526;1263;140747;-81
2023/12/10 23:25:09;;;;;;;117.80;37.80;;;;;;;4.95;92.12;99176.34;682567;1258;140404;-81
2023/12/10 23:40:46;;;;;;;85.70;32.60;;;;;;;4.96;91.98;99163.98;682644;1263;138893;-81
2023/12/10 23:56:23;;;;;;;89.70;28.20;;;;;;;4.81;94.74;99139.21;682729;1260;139165;-83
